Terminal Aerodrome Forecast
Issued by NWS Pocatello, ID

Home | Current Version | Previous Version | Text Only | Print | Product List | Glossary On
Versions: 1 2 3 4 5 6 7 8 9 10 11 12 13 14 15 16 17 18 19 20 21
000
FTUS45 KPIH 270551 AAA
TAFPIH
TAF AMD
KPIH 270551Z 2706/2806 03005KT P6SM VCSH OVC060
     FM270900 03007KT P6SM FEW008 SCT025 OVC050
     FM272000 29011KT P6SM SCT030
     FM280200 VRB06KT P6SM SKC=

USA.gov is the U.S. government's official web portal to all federal, state and local government web resources and services.